Time;durP1;ratioP1;P1;durP2;ratioP2;P2;SDS_P1;SDS_P2;PMS_P1;PMS_P2;Temp;Humidity;BMP_temperature;BMP_pressure;BME280_temperature;BME280_humidity;BME280_pressure;Samples;Min_cycle;Max_cycle;Signal;HPM_P1;HPM_P2
2024/03/09 00:04:55;;;;;;;26.45;15.40;;;16.60;98.50;;;;;;10545936;27;20036;-58
2024/03/09 00:09:57;;;;;;;21.90;13.48;;;16.50;99.00;;;;;;10552958;27;20047;-59
2024/03/09 00:15:01;;;;;;;27.27;16.35;;;16.50;99.00;;;;;;10547587;27;20052;-60
2024/03/09 00:20:04;;;;;;;23.48;14.85;;;16.30;98.90;;;;;;10549119;28;20084;-59
2024/03/09 00:25:07;;;;;;;21.73;13.25;;;16.50;98.90;;;;;;10548192;28;20058;-58
2024/03/09 00:30:17;;;;;;;22.08;14.13;;;16.50;98.90;;;;;;10553884;27;20043;-59
2024/03/09 00:35:20;;;;;;;22.77;12.38;;;16.30;99.00;;;;;;10555721;27;20048;-57
2024/03/09 00:40:23;;;;;;;;;;;16.40;99.20;;;;;;10561102;27;20243;-58
2024/03/09 00:45:27;;;;;;;18.20;12.18;;;16.40;98.90;;;;;;10555223;27;19927;-56
2024/03/09 00:50:28;;;;;;;23.10;13.77;;;16.20;99.30;;;;;;10563676;27;20097;-60
2024/03/09 00:55:31;;;;;;;31.40;16.67;;;16.10;99.30;;;;;;10557979;27;20077;-58
2024/03/09 01:00:37;;;;;;;17.40;10.77;;;16.20;99.10;;;;;;10557095;27;20468;-58
2024/03/09 01:05:44;;;;;;;22.70;14.40;;;16.00;99.20;;;;;;10559195;27;20043;-61
2024/03/09 01:10:46;;;;;;;24.50;15.20;;;16.10;99.30;;;;;;10554886;27;20146;-58
2024/03/09 01:15:51;;;;;;;23.17;14.50;;;16.00;99.40;;;;;;10552494;27;20047;-59
2024/03/09 01:20:53;;;;;;;25.17;13.05;;;16.10;99.10;;;;;;10559990;27;20795;-57
2024/03/09 01:25:56;;;;;;;27.15;14.02;;;15.90;99.40;;;;;;10562631;27;20918;-58
2024/03/09 01:31:00;;;;;;;19.05;12.50;;;15.80;99.60;;;;;;10565834;27;20052;-57
2024/03/09 01:36:03;;;;;;;22.60;12.65;;;15.80;99.50;;;;;;10561356;27;20043;-57
2024/03/09 01:41:05;;;;;;;29.77;17.77;;;16.00;99.30;;;;;;10560632;27;20051;-59
2024/03/09 01:46:10;;;;;;;22.67;14.20;;;15.90;99.20;;;;;;10562413;27;20055;-58
2024/03/09 01:51:14;;;;;;;24.67;14.07;;;15.70;99.50;;;;;;10563889;27;20131;-57
2024/03/09 01:56:22;;;;;;;27.63;14.93;;;15.80;99.70;;;;;;10558713;27;20070;-55
2024/03/09 02:01:26;;;;;;;27.60;14.05;;;15.90;99.50;;;;;;10559410;27;20050;-58
2024/03/09 02:06:30;;;;;;;22.58;11.98;;;15.80;99.20;;;;;;10559010;27;20039;-58
2024/03/09 02:11:32;;;;;;;22.60;14.07;;;15.60;99.80;;;;;;10564818;27;20047;-56
2024/03/09 02:16:36;;;;;;;20.70;12.77;;;15.70;99.80;;;;;;10556859;27;20112;-58
2024/03/09 02:21:38;;;;;;;21.27;12.35;;;15.60;99.80;;;;;;10552834;27;20070;-58
2024/03/09 02:26:42;;;;;;;31.88;18.15;;;15.50;99.80;;;;;;10555843;27;21316;-57
2024/03/09 02:31:45;;;;;;;29.45;17.15;;;15.40;99.80;;;;;;10555773;27;20155;-59
2024/03/09 02:36:47;;;;;;;25.70;15.70;;;15.60;99.30;;;;;;10559638;27;20690;-58
2024/03/09 02:41:51;;;;;;;21.17;12.90;;;15.60;99.30;;;;;;10562734;27;20506;-55
2024/03/09 02:46:53;;;;;;;27.10;14.25;;;15.50;99.90;;;;;;10558423;27;20047;-56
2024/03/09 02:51:55;;;;;;;25.20;14.63;;;15.70;99.40;;;;;;10562908;27;20078;-59
2024/03/09 02:57:00;;;;;;;31.38;18.35;;;15.70;99.00;;;;;;10559116;27;20788;-57
2024/03/09 03:02:14;;;;;;;24.67;14.73;;;15.70;99.00;;;;;;10564266;27;20086;-58
2024/03/09 03:07:16;;;;;;;25.50;16.30;;;15.50;99.50;;;;;;10557486;27;20051;-55
2024/03/09 03:12:19;;;;;;;19.67;11.90;;;15.60;99.30;;;;;;10565622;27;20600;-59
2024/03/09 03:17:23;;;;;;;35.08;17.55;;;15.70;99.20;;;;;;10562236;27;20417;-58
2024/03/09 03:22:29;;;;;;;19.30;10.70;;;15.60;99.10;;;;;;10558724;27;20406;-57
2024/03/09 03:27:33;;;;;;;17.38;9.98;;;15.50;99.60;;;;;;10556150;27;20426;-59
2024/03/09 03:32:35;;;;;;;18.92;12.23;;;15.60;99.20;;;;;;10566989;27;20506;-58
2024/03/09 03:37:37;;;;;;;20.73;12.98;;;15.40;99.50;;;;;;10561111;27;20040;-58
2024/03/09 03:42:40;;;;;;;20.20;12.67;;;15.30;99.90;;;;;;10565506;27;20051;-56
2024/03/09 03:47:42;;;;;;;27.10;16.17;;;15.30;99.90;;;;;;10566312;27;20597;-57
2024/03/09 03:52:44;;;;;;;25.87;15.87;;;15.50;99.50;;;;;;10560163;27;20059;-57
2024/03/09 04:15:31;;;;;;;30.40;18.27;;;15.50;99.50;;;;;;10584936;27;20705;-59
2024/03/09 04:20:34;;;;;;;23.55;14.23;;;15.40;99.70;;;;;;10604445;27;20051;-58
2024/03/09 04:25:38;;;;;;;21.65;14.32;;;15.40;99.80;;;;;;10606125;27;20047;-58
2024/03/09 04:30:42;;;;;;;20.77;13.23;;;15.40;99.80;;;;;;10605539;27;20177;-57
2024/03/09 04:35:48;;;;;;;22.55;14.13;;;15.30;99.60;;;;;;10599121;27;20051;-57
2024/03/09 04:40:50;;;;;;;27.08;16.13;;;15.60;99.30;;;;;;10614077;27;20044;-60
2024/03/09 04:45:55;;;;;;;22.15;13.63;;;15.40;99.50;;;;;;10614114;27;20058;-56
2024/03/09 04:50:58;;;;;;;27.85;15.52;;;15.30;99.80;;;;;;10602284;27;20051;-58
2024/03/09 04:56:00;;;;;;;19.27;10.15;;;15.40;99.50;;;;;;10600554;27;20414;-57
2024/03/09 05:01:05;;;;;;;18.25;11.70;;;15.50;99.20;;;;;;10608484;27;20080;-55
2024/03/09 05:06:07;;;;;;;19.73;12.43;;;15.30;99.40;;;;;;10594363;27;20046;-56
2024/03/09 05:11:11;;;;;;;28.40;15.60;;;15.30;99.40;;;;;;10606562;27;20062;-57
2024/03/09 05:16:17;;;;;;;21.55;11.18;;;15.30;99.50;;;;;;10594841;27;20961;-58
2024/03/09 05:21:19;;;;;;;17.60;9.30;;;15.50;99.30;;;;;;10601513;27;20393;-59
2024/03/09 05:26:23;;;;;;;31.57;18.40;;;15.50;99.00;;;;;;10582475;27;20165;-56
2024/03/09 05:31:30;;;;;;;20.48;13.60;;;15.60;98.80;;;;;;10571360;27;22245;-56
2024/03/09 05:36:32;;;;;;;20.17;12.35;;;15.50;98.90;;;;;;10566446;27;20473;-58
2024/03/09 05:41:37;;;;;;;21.33;12.97;;;15.60;99.00;;;;;;10570777;27;20104;-57
2024/03/09 05:46:40;;;;;;;19.75;12.88;;;15.50;98.90;;;;;;10565698;27;20475;-54
2024/03/09 05:51:42;;;;;;;15.18;10.30;;;15.60;98.70;;;;;;10567950;27;20098;-59
2024/03/09 05:56:44;;;;;;;18.95;10.40;;;15.90;98.80;;;;;;10565315;27;20585;-58
2024/03/09 06:01:47;;;;;;;17.92;11.50;;;15.80;99.00;;;;;;10558488;27;20094;-54
2024/03/09 06:06:54;;;;;;;15.43;10.02;;;16.00;98.20;;;;;;10562501;27;20079;-58
2024/03/09 06:11:56;;;;;;;25.13;14.95;;;16.10;98.00;;;;;;10566232;27;20075;-54
2024/03/09 06:17:00;;;;;;;25.02;15.48;;;16.10;98.10;;;;;;10562299;27;20062;-57
2024/03/09 06:22:01;;;;;;;16.48;9.73;;;16.10;98.20;;;;;;10554534;27;20058;-59
2024/03/09 06:27:05;;;;;;;16.63;10.07;;;15.90;98.80;;;;;;10554757;27;20067;-57
2024/03/09 06:32:09;;;;;;;24.55;15.20;;;16.10;98.40;;;;;;10557855;27;20915;-58
2024/03/09 06:37:11;;;;;;;18.98;10.73;;;16.00;98.30;;;;;;10559022;27;20044;-59
2024/03/09 06:42:13;;;;;;;13.27;7.88;;;16.10;98.30;;;;;;10552917;27;20047;-58
2024/03/09 06:47:16;;;;;;;22.27;13.80;;;16.30;98.30;;;;;;10559315;27;20120;-60
2024/03/09 06:52:18;;;;;;;22.08;14.38;;;16.40;98.30;;;;;;10554694;27;20052;-58
2024/03/09 06:57:20;;;;;;;16.73;10.93;;;16.50;98.10;;;;;;10549178;27;20043;-59
2024/03/09 07:02:24;;;;;;;12.60;7.70;;;16.30;97.80;;;;;;10547065;27;21160;-59
2024/03/09 07:07:26;;;;;;;26.17;16.30;;;16.30;97.80;;;;;;10552664;27;20071;-58
2024/03/09 07:12:27;;;;;;;23.50;13.80;;;16.30;98.20;;;;;;10546618;27;20047;-59
2024/03/09 07:17:34;;;;;;;27.13;16.13;;;16.30;98.00;;;;;;10552625;27;20047;-59
2024/03/09 07:22:36;;;;;;;27.27;16.10;;;16.30;97.70;;;;;;10548808;27;20058;-57
2024/03/09 07:27:41;;;;;;;13.65;9.57;;;16.30;97.50;;;;;;10551806;27;20051;-59
2024/03/09 07:32:44;;;;;;;27.48;14.88;;;16.40;97.80;;;;;;10552479;27;20429;-60
2024/03/09 07:37:47;;;;;;;22.27;13.52;;;16.30;97.50;;;;;;10542986;27;20753;-58
2024/03/09 07:42:50;;;;;;;18.65;10.20;;;16.60;97.30;;;;;;10555123;27;20537;-57
2024/03/09 07:47:54;;;;;;;19.98;12.60;;;16.40;97.60;;;;;;10549108;27;20077;-58
2024/03/09 07:52:57;;;;;;;25.23;14.77;;;16.60;97.50;;;;;;10548583;27;20387;-59
2024/03/09 07:57:59;;;;;;;21.13;13.13;;;16.50;97.50;;;;;;10551050;27;20761;-58
2024/03/09 08:03:02;;;;;;;;;;;16.60;97.50;;;;;;10538504;27;20086;-60
2024/03/09 08:08:09;;;;;;;17.85;11.40;;;16.60;97.30;;;;;;10549492;27;19934;-58
2024/03/09 08:13:11;;;;;;;22.65;14.77;;;16.80;96.90;;;;;;10549931;28;20059;-57
2024/03/09 08:18:14;;;;;;;20.90;12.60;;;16.60;97.30;;;;;;10556018;28;20048;-59
2024/03/09 08:23:17;;;;;;;25.88;14.40;;;16.70;97.30;;;;;;10548963;28;20071;-58
2024/03/09 08:28:20;;;;;;;20.75;13.45;;;16.80;96.90;;;;;;10553357;28;20261;-57
2024/03/09 08:33:23;;;;;;;19.60;11.90;;;16.60;97.00;;;;;;10547506;28;20063;-57
2024/03/09 08:38:26;;;;;;;21.63;13.85;;;16.80;97.10;;;;;;10549825;28;20051;-58
2024/03/09 08:43:31;;;;;;;23.80;10.80;;;16.60;97.60;;;;;;10552463;28;20438;-58
2024/03/09 08:48:34;;;;;;;16.65;10.45;;;16.80;97.40;;;;;;10550665;28;20055;-57
2024/03/09 08:53:36;;;;;;;21.48;14.23;;;17.00;96.80;;;;;;10551041;28;20039;-59
2024/03/09 08:58:41;;;;;;;22.95;13.68;;;16.90;97.20;;;;;;10550399;27;20135;-57
2024/03/09 09:03:44;;;;;;;26.83;12.35;;;16.80;97.70;;;;;;10560597;27;20051;-57
2024/03/09 09:08:46;;;;;;;19.40;11.13;;;17.10;97.00;;;;;;10554965;27;20280;-58
2024/03/09 09:13:49;;;;;;;12.27;6.90;;;17.20;97.10;;;;;;10559722;27;20054;-58
2024/03/09 09:18:52;;;;;;;20.27;9.85;;;16.90;97.50;;;;;;10555717;27;20054;-56
2024/03/09 09:23:54;;;;;;;12.07;7.65;;;17.20;97.30;;;;;;10551464;27;20047;-55
2024/03/09 09:28:57;;;;;;;;;;;17.20;97.30;;;;;;10568556;27;20048;-54
2024/03/09 09:34:00;;;;;;;17.95;11.40;;;17.10;97.60;;;;;;10564673;27;19965;-56
2024/03/09 09:39:02;;;;;;;16.67;11.40;;;17.20;97.00;;;;;;10551756;27;20161;-58
2024/03/09 09:44:08;;;;;;;21.27;13.20;;;17.20;96.60;;;;;;10564671;27;20051;-57
2024/03/09 09:49:12;;;;;;;20.63;13.25;;;17.20;96.90;;;;;;10571837;27;20047;-58
2024/03/09 09:54:14;;;;;;;18.98;11.68;;;17.20;98.00;;;;;;10562558;27;20042;-57
2024/03/09 09:59:21;;;;;;;21.73;11.50;;;17.20;97.40;;;;;;10562150;27;20039;-58
2024/03/09 10:04:26;;;;;;;22.55;11.10;;;17.40;96.80;;;;;;10559876;27;20043;-56
2024/03/09 10:09:28;;;;;;;18.73;13.27;;;17.70;94.40;;;;;;10565373;27;20097;-59
2024/03/09 10:14:31;;;;;;;21.85;12.10;;;17.60;95.40;;;;;;10547988;27;20599;-54
2024/03/09 10:19:37;;;;;;;26.90;12.95;;;17.80;96.80;;;;;;10552893;27;20051;-56
2024/03/09 10:24:53;;;;;;;23.70;14.02;;;18.00;96.60;;;;;;10560492;27;20044;-55
2024/03/09 10:30:10;;;;;;;26.42;12.85;;;17.90;95.50;;;;;;10551409;27;20146;-57
2024/03/09 10:35:17;;;;;;;32.00;13.20;;;18.10;96.40;;;;;;10556111;27;20043;-57
2024/03/09 10:40:20;;;;;;;35.03;14.70;;;17.70;96.90;;;;;;10558099;27;20073;-55
2024/03/09 10:45:29;;;;;;;31.60;13.25;;;17.80;97.10;;;;;;10554677;27;20986;-56
2024/03/09 10:50:44;;;;;;;21.60;12.50;;;17.70;97.30;;;;;;10554647;27;20052;-56
2024/03/09 10:55:54;;;;;;;19.42;11.88;;;17.90;96.90;;;;;;10560306;27;20043;-56
2024/03/09 11:00:56;;;;;;;18.83;11.45;;;17.90;97.20;;;;;;10552533;27;20432;-58
2024/03/09 11:06:00;;;;;;;19.23;10.52;;;18.00;96.80;;;;;;10553039;27;20044;-56
2024/03/09 11:11:06;;;;;;;17.60;11.00;;;18.20;97.90;;;;;;10556602;27;20052;-56
2024/03/09 11:16:09;;;;;;;19.52;11.18;;;18.30;96.20;;;;;;10557626;27;20217;-55
2024/03/09 11:21:23;;;;;;;19.30;11.20;;;18.40;96.40;;;;;;10549759;27;20039;-56
2024/03/09 11:26:28;;;;;;;20.27;11.73;;;18.50;96.30;;;;;;10555260;27;20055;-55
2024/03/09 11:31:30;;;;;;;16.83;11.55;;;18.60;95.00;;;;;;10549188;27;20104;-55
2024/03/09 11:36:56;;;;;;;19.05;10.95;;;18.60;95.80;;;;;;10556338;27;20047;-59
2024/03/09 11:42:00;;;;;;;20.00;11.52;;;18.70;94.70;;;;;;10551579;27;20104;-59
2024/03/09 11:47:03;;;;;;;17.60;10.52;;;18.90;95.90;;;;;;10558950;27;20056;-59
2024/03/09 11:52:11;;;;;;;16.98;10.52;;;18.60;96.10;;;;;;10546835;27;20043;-58
2024/03/09 11:57:14;;;;;;;14.13;9.30;;;18.80;95.30;;;;;;10551007;27;20066;-60
2024/03/09 12:02:15;;;;;;;;;;;18.80;95.60;;;;;;10553553;27;20146;-59
2024/03/09 12:07:19;;;;;;;15.52;9.70;;;18.90;94.20;;;;;;10544912;27;19951;-58
2024/03/09 12:12:21;;;;;;;16.90;10.43;;;19.00;95.00;;;;;;10552900;27;20048;-57
2024/03/09 12:17:24;;;;;;;16.50;11.27;;;19.10;94.30;;;;;;10553643;28;20067;-58
2024/03/09 12:22:27;;;;;;;13.68;9.32;;;19.00;94.40;;;;;;10553656;27;20078;-57
2024/03/09 12:27:29;;;;;;;14.07;6.82;;;19.10;92.60;;;;;;10553273;28;20280;-57
2024/03/09 12:32:31;;;;;;;14.27;9.00;;;19.20;94.50;;;;;;10551277;27;20114;-60
2024/03/09 12:37:36;;;;;;;20.48;10.35;;;19.30;94.10;;;;;;10553314;27;20138;-58
2024/03/09 12:42:42;;;;;;;18.38;9.68;;;19.40;92.70;;;;;;10557190;27;20489;-59
2024/03/09 12:47:46;;;;;;;13.35;9.60;;;19.70;92.80;;;;;;10553438;27;20055;-59
2024/03/09 12:52:50;;;;;;;18.27;10.35;;;20.00;92.50;;;;;;10540471;27;20055;-57
2024/03/09 12:57:54;;;;;;;16.60;11.00;;;20.00;92.40;;;;;;10554665;27;20135;-58
2024/03/09 13:02:56;;;;;;;19.52;11.55;;;19.90;93.80;;;;;;10555680;27;20131;-57
2024/03/09 13:07:59;;;;;;;;;;;20.10;92.20;;;;;;10554695;27;20114;-59
2024/03/09 13:13:04;;;;;;;16.38;10.25;;;20.30;92.70;;;;;;10551991;27;19919;-61
2024/03/09 13:18:08;;;;;;;15.20;8.60;;;20.30;92.40;;;;;;10550993;27;20048;-57
2024/03/09 13:23:13;;;;;;;15.45;8.48;;;20.30;93.40;;;;;;10548529;27;20687;-58
2024/03/09 13:28:15;;;;;;;15.45;11.18;;;20.60;91.40;;;;;;10545961;27;20604;-58
2024/03/09 13:33:17;;;;;;;13.50;8.60;;;20.70;90.00;;;;;;10559019;27;20055;-57
2024/03/09 13:38:21;;;;;;;;;;;21.10;91.60;;;;;;10563206;27;20417;-57
2024/03/09 13:43:23;;;;;;;16.42;8.48;;;20.80;91.50;;;;;;10559784;27;19919;-56
2024/03/09 13:48:31;;;;;;;17.23;10.32;;;20.90;91.90;;;;;;10556685;27;20886;-56
2024/03/09 13:53:35;;;;;;;20.67;9.20;;;21.00;92.00;;;;;;10558653;27;20176;-54
2024/03/09 13:58:37;;;;;;;18.42;12.27;;;21.20;92.60;;;;;;10559146;27;20082;-60
2024/03/09 14:03:39;;;;;;;17.45;11.52;;;21.30;93.20;;;;;;10549825;27;20052;-58
2024/03/09 14:08:44;;;;;;;14.93;9.50;;;21.50;81.70;;;;;;10565019;27;20871;-58
2024/03/09 14:13:47;;;;;;;15.98;9.88;;;21.60;91.70;;;;;;10556672;27;20063;-58
2024/03/09 14:18:50;;;;;;;10.60;7.95;;;21.80;91.20;;;;;;10560367;27;20055;-55
2024/03/09 14:23:55;;;;;;;15.68;9.43;;;21.90;91.80;;;;;;10557517;27;20162;-59
2024/03/09 14:28:58;;;;;;;13.68;9.50;;;22.00;92.00;;;;;;10552858;27;20133;-59
2024/03/09 14:34:01;;;;;;;15.75;10.77;;;22.10;90.50;;;;;;10554855;27;20047;-59
2024/03/09 14:39:04;;;;;;;18.23;10.57;;;22.30;90.70;;;;;;10559480;27;20181;-58
2024/03/09 14:44:06;;;;;;;15.00;9.93;;;22.60;89.60;;;;;;10556294;27;20047;-58
2024/03/09 14:49:09;;;;;;;;;;;22.70;81.40;;;;;;10562201;27;20095;-59
2024/03/09 14:54:15;;;;;;;14.90;9.32;;;22.90;84.80;;;;;;10562298;27;20010;-57
2024/03/09 14:59:17;;;;;;;12.38;8.68;;;23.00;86.00;;;;;;10547436;27;20074;-57
2024/03/09 15:04:19;;;;;;;;;;;23.20;90.40;;;;;;10555264;27;20047;-57
2024/03/09 15:09:25;;;;;;;14.80;9.97;;;23.10;86.00;;;;;;10549503;27;19965;-57
2024/03/09 15:14:26;;;;;;;12.88;8.48;;;23.30;79.90;;;;;;10549024;27;20059;-59
2024/03/09 15:19:28;;;;;;;15.20;10.38;;;23.20;89.00;;;;;;10550015;27;20550;-59
2024/03/09 15:24:32;;;;;;;17.92;8.77;;;23.30;91.10;;;;;;10548973;27;20994;-58
2024/03/09 15:29:36;;;;;;;11.95;8.88;;;23.30;89.70;;;;;;10545148;27;20051;-59
2024/03/09 15:34:38;;;;;;;16.63;9.13;;;23.30;91.30;;;;;;10552863;27;20043;-57
2024/03/09 15:39:41;;;;;;;13.75;9.80;;;23.30;90.80;;;;;;10550339;27;20046;-58
2024/03/09 15:44:44;;;;;;;13.63;9.23;;;23.30;90.90;;;;;;10550839;27;20055;-58
2024/03/09 15:49:46;;;;;;;13.57;8.35;;;23.20;90.30;;;;;;10551944;27;20818;-57
2024/03/09 15:54:57;;;;;;;;;;;22.90;91.50;;;;;;10543735;27;20159;-57
2024/03/09 15:59:59;;;;;;;18.20;9.82;;;23.20;92.00;;;;;;10545720;27;19928;-59
2024/03/09 16:05:01;;;;;;;12.18;7.05;;;23.20;90.80;;;;;;10549045;27;23052;-56
2024/03/09 16:10:05;;;;;;;11.48;7.13;;;22.90;91.30;;;;;;10554849;27;20055;-57
2024/03/09 16:15:09;;;;;;;17.48;10.75;;;22.80;86.70;;;;;;10545835;28;20079;-58
2024/03/09 16:20:28;;;;;;;17.70;11.30;;;22.70;90.70;;;;;;10545874;28;20124;-58
2024/03/09 16:25:32;;;;;;;17.38;11.50;;;22.70;91.70;;;;;;10548258;28;20411;-58
2024/03/09 16:30:34;;;;;;;19.13;10.43;;;22.50;79.20;;;;;;10543223;28;20143;-59
2024/03/09 16:35:36;;;;;;;19.17;12.38;;;22.40;90.30;;;;;;10546888;28;20078;-61
2024/03/09 16:40:40;;;;;;;17.00;11.27;;;22.40;84.60;;;;;;10545822;28;20050;-60
2024/03/09 16:45:43;;;;;;;14.32;7.95;;;22.20;84.00;;;;;;10542371;28;20426;-58
2024/03/09 16:50:45;;;;;;;15.95;10.15;;;22.20;91.30;;;;;;10544329;28;20079;-59
2024/03/09 16:55:48;;;;;;;;;;;22.20;87.40;;;;;;10540196;28;20047;-59
2024/03/09 17:00:50;;;;;;;14.32;9.98;;;22.00;91.80;;;;;;10544878;28;20672;-57
2024/03/09 17:05:52;;;;;;;19.35;12.32;;;22.20;92.00;;;;;;10543064;28;20162;-59
2024/03/09 17:10:59;;;;;;;15.77;10.50;;;21.90;91.60;;;;;;10538681;28;20054;-58
2024/03/09 17:16:01;;;;;;;20.23;13.20;;;21.90;92.80;;;;;;10545844;28;20550;-57
2024/03/09 17:21:05;;;;;;;17.92;8.90;;;21.80;93.40;;;;;;10546348;27;20097;-59
2024/03/09 17:26:08;;;;;;;23.65;15.48;;;21.70;92.50;;;;;;10558097;27;20050;-58
2024/03/09 17:31:11;;;;;;;21.95;14.15;;;21.80;92.60;;;;;;10560639;27;20067;-57
2024/03/09 17:36:15;;;;;;;24.00;14.52;;;21.60;93.40;;;;;;10560038;27;20043;-60
2024/03/09 17:41:20;;;;;;;15.65;11.43;;;21.60;93.60;;;;;;10555969;27;20043;-57
2024/03/09 17:46:22;;;;;;;24.92;12.82;;;21.50;93.50;;;;;;10560645;27;20778;-59
2024/03/09 17:51:26;;;;;;;16.58;11.05;;;21.40;93.00;;;;;;10558906;27;20193;-58
2024/03/09 17:56:30;;;;;;;35.67;16.38;;;21.00;95.00;;;;;;10545365;27;20047;-57
2024/03/09 18:01:32;;;;;;;21.33;15.23;;;20.20;94.20;;;;;;10549957;27;23156;-58
2024/03/09 18:06:34;;;;;;;24.27;16.35;;;19.50;97.40;;;;;;10550020;27;20188;-55
2024/03/09 18:11:38;;;;;;;16.35;11.13;;;19.40;92.30;;;;;;10546798;27;20579;-58
2024/03/09 18:16:40;;;;;;;20.80;14.43;;;19.20;98.90;;;;;;10554785;27;20043;-56
2024/03/09 18:21:43;;;;;;;25.90;15.85;;;19.10;94.00;;;;;;10549249;27;20055;-59
2024/03/09 18:26:47;;;;;;;23.27;13.45;;;19.20;93.30;;;;;;10556009;27;20051;-57
2024/03/09 18:31:49;;;;;;;21.60;14.18;;;19.00;95.30;;;;;;10549043;27;20051;-58
2024/03/09 18:36:55;;;;;;;22.42;14.82;;;18.80;99.40;;;;;;10548507;27;20388;-56
2024/03/09 18:41:59;;;;;;;20.52;12.18;;;18.40;99.90;;;;;;10554832;27;20052;-60
2024/03/09 18:47:06;;;;;;;18.55;12.75;;;18.90;95.70;;;;;;10558651;27;20063;-57
2024/03/09 18:52:09;;;;;;;21.83;14.65;;;18.80;97.60;;;;;;10556464;27;20047;-58
2024/03/09 18:57:13;;;;;;;18.70;12.07;;;19.00;94.80;;;;;;10553997;27;20055;-56
2024/03/09 19:02:15;;;;;;;22.45;14.35;;;19.20;99.00;;;;;;10555446;27;20047;-59
2024/03/09 19:07:18;;;;;;;22.45;13.75;;;19.40;98.50;;;;;;10547481;27;20499;-59
2024/03/09 19:12:21;;;;;;;20.55;13.75;;;19.20;96.10;;;;;;10540426;27;20052;-54
2024/03/09 19:17:23;;;;;;;22.92;14.38;;;18.50;97.20;;;;;;10546299;27;20162;-58
2024/03/09 19:22:25;;;;;;;18.00;12.13;;;19.40;97.60;;;;;;10554105;27;20081;-56
2024/03/09 19:27:29;;;;;;;20.45;12.60;;;19.80;96.00;;;;;;10549457;27;20143;-56
2024/03/09 19:32:31;;;;;;;20.52;12.15;;;19.70;96.50;;;;;;10549396;27;20142;-58
2024/03/09 19:37:33;;;;;;;21.42;13.48;;;19.90;96.20;;;;;;10545610;27;20048;-59
2024/03/09 19:42:39;;;;;;;15.05;10.50;;;19.80;96.60;;;;;;10545388;27;21494;-60
2024/03/09 19:47:42;;;;;;;15.23;10.90;;;20.00;95.20;;;;;;10548418;27;20056;-59
2024/03/09 19:52:46;;;;;;;14.80;9.70;;;20.00;95.70;;;;;;10551015;27;20128;-54
2024/03/09 19:57:50;;;;;;;21.13;12.18;;;20.00;95.80;;;;;;10546981;27;20097;-54
2024/03/09 20:02:56;;;;;;;20.00;12.07;;;20.00;95.90;;;;;;10541066;27;20081;-58
2024/03/09 20:07:58;;;;;;;14.35;8.57;;;19.90;96.00;;;;;;10532085;27;20121;-57
2024/03/09 20:13:02;;;;;;;;;;;20.00;96.00;;;;;;10550169;27;20081;-58
2024/03/09 20:18:05;;;;;;;21.30;12.43;;;19.80;95.80;;;;;;10543426;28;19924;-59
2024/03/09 20:23:11;;;;;;;21.73;12.85;;;19.80;96.00;;;;;;10549647;28;20063;-59
2024/03/09 20:28:15;;;;;;;20.08;12.95;;;19.60;95.10;;;;;;10551574;28;20599;-59
2024/03/09 20:33:17;;;;;;;18.48;12.45;;;19.60;96.30;;;;;;10546871;28;21033;-56
2024/03/09 20:38:20;;;;;;;15.55;8.90;;;19.50;96.40;;;;;;10556515;28;20081;-58
2024/03/09 20:43:23;;;;;;;17.67;11.27;;;19.60;96.20;;;;;;10556599;28;20044;-56
2024/03/09 20:48:25;;;;;;;19.67;11.63;;;19.50;96.10;;;;;;10549373;28;20783;-55
2024/03/09 20:53:46;;;;;;;16.83;10.25;;;19.50;96.20;;;;;;10559071;27;20060;-56
2024/03/09 20:58:49;;;;;;;17.95;11.95;;;19.60;95.80;;;;;;10560878;27;20103;-55
2024/03/09 21:03:51;;;;;;;19.23;11.07;;;19.50;95.90;;;;;;10566280;27;20067;-59
2024/03/09 21:08:54;;;;;;;11.90;7.68;;;19.50;96.10;;;;;;10561217;27;20058;-57
2024/03/09 21:13:57;;;;;;;18.23;10.30;;;19.50;96.00;;;;;;10559177;27;20063;-60
2024/03/09 21:19:00;;;;;;;20.90;11.85;;;19.40;96.10;;;;;;10558894;27;20039;-59
2024/03/09 21:24:02;;;;;;;22.45;12.73;;;19.40;96.30;;;;;;10555176;27;20070;-58
2024/03/09 21:29:06;;;;;;;21.27;11.48;;;19.40;96.20;;;;;;10566315;27;20128;-57
2024/03/09 21:34:12;;;;;;;14.20;8.55;;;19.30;96.30;;;;;;10562148;27;20050;-59
2024/03/09 21:39:15;;;;;;;19.55;11.90;;;19.30;96.40;;;;;;10567730;27;20409;-60
2024/03/09 21:44:18;;;;;;;;;;;19.30;96.60;;;;;;10565849;27;20054;-59
2024/03/09 21:49:20;;;;;;;21.38;11.10;;;19.40;96.10;;;;;;10561466;27;19924;-57
2024/03/09 21:54:22;;;;;;;13.73;8.45;;;19.20;96.30;;;;;;10561567;27;20047;-58
2024/03/09 21:59:26;;;;;;;18.90;10.00;;;19.30;96.10;;;;;;10559545;27;20844;-59
2024/03/09 22:04:28;;;;;;;15.05;10.05;;;19.00;96.60;;;;;;10563234;27;20546;-58
2024/03/09 22:09:30;;;;;;;18.67;12.35;;;19.00;96.80;;;;;;10562877;27;20066;-56
2024/03/09 22:14:34;;;;;;;18.20;10.85;;;19.00;96.60;;;;;;10567050;27;20086;-57
2024/03/09 22:19:36;;;;;;;17.67;11.30;;;19.00;96.60;;;;;;10566271;27;20636;-58
2024/03/09 22:24:39;;;;;;;15.82;10.35;;;18.90;96.70;;;;;;10543930;27;20198;-56
2024/03/09 22:29:42;;;;;;;18.98;7.82;;;18.80;97.00;;;;;;10552481;27;20067;-58
2024/03/09 22:34:44;;;;;;;20.85;13.75;;;18.90;96.80;;;;;;10555256;27;21002;-58
2024/03/09 22:39:46;;;;;;;19.48;11.75;;;18.80;96.80;;;;;;10555411;27;20047;-57
2024/03/09 22:44:50;;;;;;;14.60;10.65;;;18.80;96.90;;;;;;10555929;27;20047;-55
2024/03/09 22:49:51;;;;;;;18.50;12.80;;;18.70;96.90;;;;;;10556168;27;20089;-58
2024/03/09 22:54:54;;;;;;;20.58;10.68;;;18.70;97.00;;;;;;10544453;27;20222;-56
2024/03/09 22:59:57;;;;;;;20.85;13.45;;;18.60;97.00;;;;;;10548900;27;20518;-59
2024/03/09 23:04:59;;;;;;;11.35;8.82;;;18.70;96.80;;;;;;10558140;27;20538;-57
2024/03/09 23:10:01;;;;;;;22.17;12.75;;;18.70;96.70;;;;;;10555419;27;20058;-57
2024/03/09 23:15:06;;;;;;;16.60;9.82;;;18.70;96.90;;;;;;10554131;27;20142;-58
2024/03/09 23:20:11;;;;;;;19.25;9.88;;;18.60;96.90;;;;;;10554015;27;20576;-57
2024/03/09 23:25:15;;;;;;;19.13;11.35;;;18.60;96.90;;;;;;10552379;27;20040;-58
2024/03/09 23:30:21;;;;;;;19.27;13.02;;;18.50;96.90;;;;;;10555860;27;20162;-56
2024/03/09 23:35:23;;;;;;;13.02;8.77;;;18.50;96.70;;;;;;10554285;27;20044;-57
2024/03/09 23:40:25;;;;;;;19.00;11.23;;;18.40;96.90;;;;;;10564659;27;20162;-57
2024/03/09 23:45:29;;;;;;;17.13;9.77;;;18.40;96.60;;;;;;10559006;27;20090;-57
2024/03/09 23:50:31;;;;;;;18.88;11.30;;;18.40;96.80;;;;;;10558788;27;20047;-56
2024/03/09 23:55:33;;;;;;;17.05;11.05;;;18.40;96.90;;;;;;10553747;27;20047;-57
